LEIB/IBZ METAR and TAF weather

Enter ICAO airport designator
Station Type Date Time Source
LEIB METAR 2019/10/21 06:00 UTC NOAA

LEIB 210600Z 00000KT 9999 -RA FEW045 15/13 Q1016 NOSIG


Station Type Date Time Source
LEIB Decoded METAR 2019/10/21 06:00 UTC NOAA

Ibiza / Es Codola, Spain (LEIB) 38-52N 001-23E 12M
Oct 21, 2019 - 02:00 AM EDT / 2019.10.21 0600 UTC
Wind: Calm:0
Visibility: greater than 7 mile(s):0
Sky conditions: mostly clear
Weather: light rain
Temperature: 59 F (15 C)
Dew Point: 55 F (13 C)
Relative Humidity: 87%
Pressure (altimeter): 30.00 in. Hg (1016 hPa)
ob: LEIB 210600Z 00000KT 9999 -RA FEW045 15/13 Q1016 NOSIG
cycle: 6

Station Type Date Time Source
LEIB TAF 2019/10/21 03:27 UTC NOAA

TAF LEIB 210200Z 2103/2203 32007KT 9999 FEW030 TX20/2112Z TN14/2106Z PROB30
TEMPO 2104/2120 4000 SHRA SCT030 FEW050TCU PROB30
TEMPO 2104/2110 4000 TSRA BKN030 SCT050CB

Example: see airport list